sensor_id;sensor_type;location;lat;lon;timestamp;P1;durP1;ratioP1;P2;durP2;ratioP2
21046;SDS011;10682;50.874;3.656;2023-02-17T00:01:26;6.63;;;2.67;;
21046;SDS011;10682;50.874;3.656;2023-02-17T00:03:56;4.03;;;2.63;;
21046;SDS011;10682;50.874;3.656;2023-02-17T00:06:24;5.53;;;3.03;;
21046;SDS011;10682;50.874;3.656;2023-02-17T00:08:54;3.97;;;2.67;;
21046;SDS011;10682;50.874;3.656;2023-02-17T00:11:22;6.20;;;3.70;;
21046;SDS011;10682;50.874;3.656;2023-02-17T00:13:49;5.33;;;2.70;;
21046;SDS011;10682;50.874;3.656;2023-02-17T00:16:22;4.40;;;2.83;;
21046;SDS011;10682;50.874;3.656;2023-02-17T00:18:51;4.03;;;2.50;;
21046;SDS011;10682;50.874;3.656;2023-02-17T00:21:22;4.90;;;2.70;;
21046;SDS011;10682;50.874;3.656;2023-02-17T00:23:52;9.23;;;3.07;;
21046;SDS011;10682;50.874;3.656;2023-02-17T00:26:19;5.37;;;3.30;;
21046;SDS011;10682;50.874;3.656;2023-02-17T00:28:47;7.20;;;3.70;;
21046;SDS011;10682;50.874;3.656;2023-02-17T00:31:17;6.43;;;4.03;;
21046;SDS011;10682;50.874;3.656;2023-02-17T00:33:46;6.73;;;3.93;;
21046;SDS011;10682;50.874;3.656;2023-02-17T00:36:16;4.67;;;3.00;;
21046;SDS011;10682;50.874;3.656;2023-02-17T00:38:45;6.80;;;2.70;;
21046;SDS011;10682;50.874;3.656;2023-02-17T00:41:14;3.90;;;2.53;;
21046;SDS011;10682;50.874;3.656;2023-02-17T00:43:43;4.10;;;2.67;;
21046;SDS011;10682;50.874;3.656;2023-02-17T00:46:10;4.97;;;2.57;;
21046;SDS011;10682;50.874;3.656;2023-02-17T00:48:37;7.73;;;2.60;;
21046;SDS011;10682;50.874;3.656;2023-02-17T00:51:04;5.43;;;2.70;;
21046;SDS011;10682;50.874;3.656;2023-02-17T00:53:32;6.43;;;2.90;;
21046;SDS011;10682;50.874;3.656;2023-02-17T00:55:59;6.60;;;3.00;;
21046;SDS011;10682;50.874;3.656;2023-02-17T00:58:26;4.10;;;2.63;;
21046;SDS011;10682;50.874;3.656;2023-02-17T01:00:54;5.30;;;2.83;;
21046;SDS011;10682;50.874;3.656;2023-02-17T01:03:23;5.50;;;2.97;;
21046;SDS011;10682;50.874;3.656;2023-02-17T01:05:51;7.10;;;3.67;;
21046;SDS011;10682;50.874;3.656;2023-02-17T01:08:20;6.37;;;3.07;;
21046;SDS011;10682;50.874;3.656;2023-02-17T01:10:48;5.37;;;3.53;;
21046;SDS011;10682;50.874;3.656;2023-02-17T01:13:17;9.00;;;5.20;;
21046;SDS011;10682;50.874;3.656;2023-02-17T01:15:49;5.10;;;3.27;;
21046;SDS011;10682;50.874;3.656;2023-02-17T01:18:19;9.37;;;3.13;;
21046;SDS011;10682;50.874;3.656;2023-02-17T01:20:48;6.43;;;3.30;;
21046;SDS011;10682;50.874;3.656;2023-02-17T01:23:16;5.23;;;2.83;;
21046;SDS011;10682;50.874;3.656;2023-02-17T01:25:44;4.53;;;2.60;;
21046;SDS011;10682;50.874;3.656;2023-02-17T01:28:17;4.20;;;2.60;;
21046;SDS011;10682;50.874;3.656;2023-02-17T01:30:46;3.77;;;2.40;;
21046;SDS011;10682;50.874;3.656;2023-02-17T01:33:14;5.00;;;2.70;;
21046;SDS011;10682;50.874;3.656;2023-02-17T01:35:41;6.17;;;3.83;;
21046;SDS011;10682;50.874;3.656;2023-02-17T01:38:08;5.00;;;2.60;;
21046;SDS011;10682;50.874;3.656;2023-02-17T01:40:45;5.33;;;2.77;;
21046;SDS011;10682;50.874;3.656;2023-02-17T01:43:15;4.57;;;3.20;;
21046;SDS011;10682;50.874;3.656;2023-02-17T01:46:04;3.80;;;2.87;;
21046;SDS011;10682;50.874;3.656;2023-02-17T01:51:22;4.83;;;3.07;;
21046;SDS011;10682;50.874;3.656;2023-02-17T01:53:55;6.43;;;2.77;;
21046;SDS011;10682;50.874;3.656;2023-02-17T01:56:35;5.07;;;2.70;;
21046;SDS011;10682;50.874;3.656;2023-02-17T01:59:07;3.97;;;2.63;;
21046;SDS011;10682;50.874;3.656;2023-02-17T02:01:41;4.80;;;2.47;;
21046;SDS011;10682;50.874;3.656;2023-02-17T02:04:08;4.50;;;2.37;;
21046;SDS011;10682;50.874;3.656;2023-02-17T02:06:37;5.07;;;2.30;;
21046;SDS011;10682;50.874;3.656;2023-02-17T02:09:10;5.40;;;3.13;;
21046;SDS011;10682;50.874;3.656;2023-02-17T02:11:52;4.93;;;2.50;;
21046;SDS011;10682;50.874;3.656;2023-02-17T02:14:19;4.90;;;2.43;;
21046;SDS011;10682;50.874;3.656;2023-02-17T02:26:00;9.50;;;4.13;;
21046;SDS011;10682;50.874;3.656;2023-02-17T02:34:33;5.57;;;2.93;;
21046;SDS011;10682;50.874;3.656;2023-02-17T02:37:18;7.53;;;3.53;;
21046;SDS011;10682;50.874;3.656;2023-02-17T02:39:53;7.03;;;3.57;;
21046;SDS011;10682;50.874;3.656;2023-02-17T02:42:22;6.80;;;3.60;;
21046;SDS011;10682;50.874;3.656;2023-02-17T02:44:50;5.20;;;3.00;;
21046;SDS011;10682;50.874;3.656;2023-02-17T02:50:19;6.67;;;4.20;;
21046;SDS011;10682;50.874;3.656;2023-02-17T02:53:15;9.10;;;3.50;;
21046;SDS011;10682;50.874;3.656;2023-02-17T02:56:08;9.03;;;3.70;;
21046;SDS011;10682;50.874;3.656;2023-02-17T02:59:22;9.40;;;4.23;;
21046;SDS011;10682;50.874;3.656;2023-02-17T03:02:21;12.67;;;3.97;;
21046;SDS011;10682;50.874;3.656;2023-02-17T03:08:39;10.57;;;4.10;;
21046;SDS011;10682;50.874;3.656;2023-02-17T03:11:15;11.00;;;5.47;;
21046;SDS011;10682;50.874;3.656;2023-02-17T03:14:01;13.00;;;5.10;;
21046;SDS011;10682;50.874;3.656;2023-02-17T03:16:31;9.73;;;4.33;;
21046;SDS011;10682;50.874;3.656;2023-02-17T03:19:00;14.80;;;6.30;;
21046;SDS011;10682;50.874;3.656;2023-02-17T03:22:12;17.03;;;5.50;;
21046;SDS011;10682;50.874;3.656;2023-02-17T03:24:23;11.03;;;4.70;;
21046;SDS011;10682;50.874;3.656;2023-02-17T03:26:51;14.23;;;3.90;;
21046;SDS011;10682;50.874;3.656;2023-02-17T03:29:18;12.60;;;4.27;;
21046;SDS011;10682;50.874;3.656;2023-02-17T03:31:46;14.07;;;4.53;;
21046;SDS011;10682;50.874;3.656;2023-02-17T03:34:13;13.53;;;4.97;;
21046;SDS011;10682;50.874;3.656;2023-02-17T03:36:40;11.80;;;4.67;;
21046;SDS011;10682;50.874;3.656;2023-02-17T03:39:07;14.83;;;4.30;;
21046;SDS011;10682;50.874;3.656;2023-02-17T03:41:34;14.70;;;4.80;;
21046;SDS011;10682;50.874;3.656;2023-02-17T03:44:02;10.60;;;5.10;;
21046;SDS011;10682;50.874;3.656;2023-02-17T03:46:29;12.87;;;5.20;;
21046;SDS011;10682;50.874;3.656;2023-02-17T03:48:56;12.80;;;5.47;;
21046;SDS011;10682;50.874;3.656;2023-02-17T03:51:23;10.23;;;4.80;;
21046;SDS011;10682;50.874;3.656;2023-02-17T03:53:51;13.00;;;5.50;;
21046;SDS011;10682;50.874;3.656;2023-02-17T03:56:18;15.03;;;5.70;;
21046;SDS011;10682;50.874;3.656;2023-02-17T03:58:46;15.87;;;5.77;;
21046;SDS011;10682;50.874;3.656;2023-02-17T04:01:13;13.20;;;5.90;;
21046;SDS011;10682;50.874;3.656;2023-02-17T04:03:41;14.77;;;5.50;;
21046;SDS011;10682;50.874;3.656;2023-02-17T04:06:08;13.97;;;5.87;;
21046;SDS011;10682;50.874;3.656;2023-02-17T04:08:36;14.70;;;6.10;;
21046;SDS011;10682;50.874;3.656;2023-02-17T04:11:05;14.80;;;6.00;;
21046;SDS011;10682;50.874;3.656;2023-02-17T04:13:34;15.50;;;5.50;;
21046;SDS011;10682;50.874;3.656;2023-02-17T04:16:03;16.60;;;5.60;;
21046;SDS011;10682;50.874;3.656;2023-02-17T04:18:32;10.93;;;5.43;;
21046;SDS011;10682;50.874;3.656;2023-02-17T04:20:59;16.50;;;6.00;;
21046;SDS011;10682;50.874;3.656;2023-02-17T04:23:26;13.33;;;5.70;;
21046;SDS011;10682;50.874;3.656;2023-02-17T04:25:54;11.27;;;5.80;;
21046;SDS011;10682;50.874;3.656;2023-02-17T04:28:21;15.63;;;6.00;;
21046;SDS011;10682;50.874;3.656;2023-02-17T04:30:48;14.07;;;6.00;;
21046;SDS011;10682;50.874;3.656;2023-02-17T04:33:17;12.87;;;5.57;;
21046;SDS011;10682;50.874;3.656;2023-02-17T04:35:45;15.63;;;6.73;;
21046;SDS011;10682;50.874;3.656;2023-02-17T04:38:13;14.07;;;6.07;;
21046;SDS011;10682;50.874;3.656;2023-02-17T04:40:40;16.17;;;6.73;;
21046;SDS011;10682;50.874;3.656;2023-02-17T04:43:09;19.23;;;7.27;;
21046;SDS011;10682;50.874;3.656;2023-02-17T04:45:36;14.00;;;6.70;;
21046;SDS011;10682;50.874;3.656;2023-02-17T04:48:04;17.73;;;6.67;;
21046;SDS011;10682;50.874;3.656;2023-02-17T04:50:31;14.57;;;6.90;;
21046;SDS011;10682;50.874;3.656;2023-02-17T04:52:58;17.23;;;6.77;;
21046;SDS011;10682;50.874;3.656;2023-02-17T04:55:25;19.03;;;7.37;;
21046;SDS011;10682;50.874;3.656;2023-02-17T04:57:52;15.03;;;7.07;;
21046;SDS011;10682;50.874;3.656;2023-02-17T05:00:19;17.80;;;7.80;;
21046;SDS011;10682;50.874;3.656;2023-02-17T05:02:47;15.37;;;7.67;;
21046;SDS011;10682;50.874;3.656;2023-02-17T05:05:14;17.03;;;7.80;;
21046;SDS011;10682;50.874;3.656;2023-02-17T05:07:41;15.60;;;7.87;;
21046;SDS011;10682;50.874;3.656;2023-02-17T05:10:09;15.13;;;7.67;;
21046;SDS011;10682;50.874;3.656;2023-02-17T05:12:36;13.97;;;7.83;;
21046;SDS011;10682;50.874;3.656;2023-02-17T05:15:05;11.80;;;6.60;;
21046;SDS011;10682;50.874;3.656;2023-02-17T05:17:33;12.57;;;7.00;;
21046;SDS011;10682;50.874;3.656;2023-02-17T05:20:01;15.23;;;7.60;;
21046;SDS011;10682;50.874;3.656;2023-02-17T05:22:29;13.93;;;7.00;;
21046;SDS011;10682;50.874;3.656;2023-02-17T05:29:06;12.27;;;7.43;;
21046;SDS011;10682;50.874;3.656;2023-02-17T05:31:33;18.97;;;7.50;;
21046;SDS011;10682;50.874;3.656;2023-02-17T05:34:01;15.43;;;6.80;;
21046;SDS011;10682;50.874;3.656;2023-02-17T05:36:28;12.67;;;6.40;;
21046;SDS011;10682;50.874;3.656;2023-02-17T05:41:40;13.50;;;6.60;;
21046;SDS011;10682;50.874;3.656;2023-02-17T05:44:08;10.93;;;6.27;;
21046;SDS011;10682;50.874;3.656;2023-02-17T05:46:35;9.37;;;5.87;;
21046;SDS011;10682;50.874;3.656;2023-02-17T05:49:02;10.67;;;6.20;;
21046;SDS011;10682;50.874;3.656;2023-02-17T05:51:29;10.77;;;5.53;;
21046;SDS011;10682;50.874;3.656;2023-02-17T05:53:56;9.83;;;5.57;;
21046;SDS011;10682;50.874;3.656;2023-02-17T05:56:23;8.27;;;4.60;;
21046;SDS011;10682;50.874;3.656;2023-02-17T05:58:50;6.43;;;4.30;;
21046;SDS011;10682;50.874;3.656;2023-02-17T06:01:18;10.87;;;4.43;;
21046;SDS011;10682;50.874;3.656;2023-02-17T06:03:45;7.10;;;4.13;;
21046;SDS011;10682;50.874;3.656;2023-02-17T06:06:12;8.73;;;4.23;;
21046;SDS011;10682;50.874;3.656;2023-02-17T06:08:39;8.17;;;4.50;;
21046;SDS011;10682;50.874;3.656;2023-02-17T06:11:06;6.73;;;4.17;;
21046;SDS011;10682;50.874;3.656;2023-02-17T06:13:33;7.80;;;4.67;;
21046;SDS011;10682;50.874;3.656;2023-02-17T06:16:02;8.00;;;4.67;;
21046;SDS011;10682;50.874;3.656;2023-02-17T06:18:30;7.60;;;4.03;;
21046;SDS011;10682;50.874;3.656;2023-02-17T06:20:57;7.07;;;4.50;;
21046;SDS011;10682;50.874;3.656;2023-02-17T06:23:25;6.50;;;3.33;;
21046;SDS011;10682;50.874;3.656;2023-02-17T06:25:53;5.87;;;3.70;;
21046;SDS011;10682;50.874;3.656;2023-02-17T06:28:20;6.10;;;3.80;;
21046;SDS011;10682;50.874;3.656;2023-02-17T06:30:47;5.87;;;3.27;;
21046;SDS011;10682;50.874;3.656;2023-02-17T06:33:14;4.97;;;3.30;;
21046;SDS011;10682;50.874;3.656;2023-02-17T06:35:41;6.23;;;3.20;;
21046;SDS011;10682;50.874;3.656;2023-02-17T06:38:13;5.60;;;3.00;;
21046;SDS011;10682;50.874;3.656;2023-02-17T06:40:40;6.20;;;3.20;;
21046;SDS011;10682;50.874;3.656;2023-02-17T06:43:07;7.77;;;4.10;;
21046;SDS011;10682;50.874;3.656;2023-02-17T06:45:34;3.83;;;2.90;;
21046;SDS011;10682;50.874;3.656;2023-02-17T06:48:01;4.00;;;3.13;;
21046;SDS011;10682;50.874;3.656;2023-02-17T06:50:30;6.40;;;3.60;;
21046;SDS011;10682;50.874;3.656;2023-02-17T06:52:57;4.60;;;3.30;;
21046;SDS011;10682;50.874;3.656;2023-02-17T06:55:24;2.47;;;2.17;;
21046;SDS011;10682;50.874;3.656;2023-02-17T06:57:51;6.07;;;1.90;;
21046;SDS011;10682;50.874;3.656;2023-02-17T07:00:18;3.53;;;2.23;;
21046;SDS011;10682;50.874;3.656;2023-02-17T07:02:46;5.10;;;2.20;;
21046;SDS011;10682;50.874;3.656;2023-02-17T07:05:13;2.87;;;2.30;;
21046;SDS011;10682;50.874;3.656;2023-02-17T07:07:41;3.37;;;2.40;;
21046;SDS011;10682;50.874;3.656;2023-02-17T07:10:08;2.93;;;2.13;;
21046;SDS011;10682;50.874;3.656;2023-02-17T07:12:36;4.10;;;2.43;;
21046;SDS011;10682;50.874;3.656;2023-02-17T07:15:03;3.43;;;1.93;;
21046;SDS011;10682;50.874;3.656;2023-02-17T07:17:41;3.37;;;1.90;;
21046;SDS011;10682;50.874;3.656;2023-02-17T07:20:08;2.23;;;1.70;;
21046;SDS011;10682;50.874;3.656;2023-02-17T07:22:36;2.60;;;1.80;;
21046;SDS011;10682;50.874;3.656;2023-02-17T07:25:04;4.07;;;2.20;;
21046;SDS011;10682;50.874;3.656;2023-02-17T07:27:33;4.90;;;1.90;;
21046;SDS011;10682;50.874;3.656;2023-02-17T07:30:02;3.37;;;2.57;;
21046;SDS011;10682;50.874;3.656;2023-02-17T07:35:39;3.37;;;1.70;;
21046;SDS011;10682;50.874;3.656;2023-02-17T07:38:10;3.00;;;1.60;;
21046;SDS011;10682;50.874;3.656;2023-02-17T07:40:38;3.43;;;2.07;;
21046;SDS011;10682;50.874;3.656;2023-02-17T07:43:05;3.43;;;1.80;;
21046;SDS011;10682;50.874;3.656;2023-02-17T07:45:32;2.97;;;1.60;;
21046;SDS011;10682;50.874;3.656;2023-02-17T07:47:59;2.57;;;1.60;;
21046;SDS011;10682;50.874;3.656;2023-02-17T07:50:27;3.83;;;1.57;;
21046;SDS011;10682;50.874;3.656;2023-02-17T07:52:54;1.90;;;1.53;;
21046;SDS011;10682;50.874;3.656;2023-02-17T07:55:21;2.10;;;1.73;;
21046;SDS011;10682;50.874;3.656;2023-02-17T07:57:49;1.73;;;1.30;;
21046;SDS011;10682;50.874;3.656;2023-02-17T08:00:16;2.93;;;1.30;;
21046;SDS011;10682;50.874;3.656;2023-02-17T08:02:44;2.80;;;1.73;;
21046;SDS011;10682;50.874;3.656;2023-02-17T08:05:11;2.13;;;1.30;;
21046;SDS011;10682;50.874;3.656;2023-02-17T08:07:38;1.60;;;1.10;;
21046;SDS011;10682;50.874;3.656;2023-02-17T08:10:05;3.27;;;1.10;;
21046;SDS011;10682;50.874;3.656;2023-02-17T08:12:51;1.37;;;0.90;;
21046;SDS011;10682;50.874;3.656;2023-02-17T08:15:36;1.10;;;0.87;;
21046;SDS011;10682;50.874;3.656;2023-02-17T08:18:04;2.80;;;1.20;;
21046;SDS011;10682;50.874;3.656;2023-02-17T08:20:31;1.80;;;0.97;;
21046;SDS011;10682;50.874;3.656;2023-02-17T08:23:00;1.80;;;0.80;;
21046;SDS011;10682;50.874;3.656;2023-02-17T08:25:32;1.80;;;0.70;;
21046;SDS011;10682;50.874;3.656;2023-02-17T08:28:01;2.47;;;0.87;;
21046;SDS011;10682;50.874;3.656;2023-02-17T08:30:30;1.07;;;0.70;;
21046;SDS011;10682;50.874;3.656;2023-02-17T08:33:01;1.40;;;1.00;;
21046;SDS011;10682;50.874;3.656;2023-02-17T08:35:28;1.10;;;1.00;;
21046;SDS011;10682;50.874;3.656;2023-02-17T08:37:55;3.33;;;1.10;;
21046;SDS011;10682;50.874;3.656;2023-02-17T08:40:22;3.03;;;1.07;;
21046;SDS011;10682;50.874;3.656;2023-02-17T08:42:49;3.13;;;1.33;;
21046;SDS011;10682;50.874;3.656;2023-02-17T08:45:17;2.83;;;1.73;;
21046;SDS011;10682;50.874;3.656;2023-02-17T08:47:44;3.33;;;1.03;;
21046;SDS011;10682;50.874;3.656;2023-02-17T08:50:12;2.37;;;1.20;;
21046;SDS011;10682;50.874;3.656;2023-02-17T08:52:41;5.33;;;1.57;;
21046;SDS011;10682;50.874;3.656;2023-02-17T08:55:08;1.93;;;0.93;;
21046;SDS011;10682;50.874;3.656;2023-02-17T08:57:35;1.60;;;1.00;;
21046;SDS011;10682;50.874;3.656;2023-02-17T09:00:04;2.37;;;0.87;;
21046;SDS011;10682;50.874;3.656;2023-02-17T09:02:36;2.97;;;0.90;;
21046;SDS011;10682;50.874;3.656;2023-02-17T09:05:12;3.30;;;1.30;;
21046;SDS011;10682;50.874;3.656;2023-02-17T09:07:42;3.30;;;1.00;;
21046;SDS011;10682;50.874;3.656;2023-02-17T09:10:13;1.47;;;1.03;;
21046;SDS011;10682;50.874;3.656;2023-02-17T09:12:40;1.93;;;0.73;;
21046;SDS011;10682;50.874;3.656;2023-02-17T09:15:08;1.10;;;0.97;;
21046;SDS011;10682;50.874;3.656;2023-02-17T09:17:39;2.60;;;1.00;;
21046;SDS011;10682;50.874;3.656;2023-02-17T09:20:07;1.83;;;1.10;;
21046;SDS011;10682;50.874;3.656;2023-02-17T09:22:49;2.07;;;1.00;;
21046;SDS011;10682;50.874;3.656;2023-02-17T09:25:17;1.23;;;0.70;;
21046;SDS011;10682;50.874;3.656;2023-02-17T09:27:44;1.23;;;0.70;;
21046;SDS011;10682;50.874;3.656;2023-02-17T09:30:12;3.70;;;0.70;;
21046;SDS011;10682;50.874;3.656;2023-02-17T09:32:52;2.03;;;0.87;;
21046;SDS011;10682;50.874;3.656;2023-02-17T09:35:19;3.73;;;0.90;;
21046;SDS011;10682;50.874;3.656;2023-02-17T09:40:49;2.60;;;0.60;;
21046;SDS011;10682;50.874;3.656;2023-02-17T09:43:17;6.17;;;1.00;;
21046;SDS011;10682;50.874;3.656;2023-02-17T09:45:55;2.60;;;1.00;;
21046;SDS011;10682;50.874;3.656;2023-02-17T09:48:31;1.83;;;0.93;;
21046;SDS011;10682;50.874;3.656;2023-02-17T09:56:46;1.33;;;1.00;;
21046;SDS011;10682;50.874;3.656;2023-02-17T09:59:19;3.37;;;1.37;;
21046;SDS011;10682;50.874;3.656;2023-02-17T10:01:57;2.63;;;1.03;;
21046;SDS011;10682;50.874;3.656;2023-02-17T10:04:27;3.27;;;0.90;;
21046;SDS011;10682;50.874;3.656;2023-02-17T10:07:11;3.33;;;0.80;;
21046;SDS011;10682;50.874;3.656;2023-02-17T10:10:30;1.53;;;0.90;;
21046;SDS011;10682;50.874;3.656;2023-02-17T10:12:57;3.57;;;1.00;;
21046;SDS011;10682;50.874;3.656;2023-02-17T10:15:34;1.83;;;1.00;;
21046;SDS011;10682;50.874;3.656;2023-02-17T10:18:10;2.40;;;0.90;;
21046;SDS011;10682;50.874;3.656;2023-02-17T10:20:52;1.70;;;1.00;;
21046;SDS011;10682;50.874;3.656;2023-02-17T10:23:26;3.37;;;0.80;;
21046;SDS011;10682;50.874;3.656;2023-02-17T10:26:05;1.63;;;0.80;;
21046;SDS011;10682;50.874;3.656;2023-02-17T10:29:19;4.17;;;1.30;;
21046;SDS011;10682;50.874;3.656;2023-02-17T10:32:24;3.33;;;1.00;;
21046;SDS011;10682;50.874;3.656;2023-02-17T10:37:44;4.03;;;0.90;;
21046;SDS011;10682;50.874;3.656;2023-02-17T10:40:16;4.47;;;1.07;;
21046;SDS011;10682;50.874;3.656;2023-02-17T10:42:59;1.47;;;0.80;;
21046;SDS011;10682;50.874;3.656;2023-02-17T10:45:33;1.43;;;0.60;;
21046;SDS011;10682;50.874;3.656;2023-02-17T10:48:46;3.73;;;1.23;;
21046;SDS011;10682;50.874;3.656;2023-02-17T10:51:26;1.33;;;0.90;;
21046;SDS011;10682;50.874;3.656;2023-02-17T10:53:58;2.83;;;0.90;;
21046;SDS011;10682;50.874;3.656;2023-02-17T10:56:37;2.67;;;0.80;;
21046;SDS011;10682;50.874;3.656;2023-02-17T11:02:27;2.13;;;0.80;;
21046;SDS011;10682;50.874;3.656;2023-02-17T11:05:03;2.60;;;0.70;;
21046;SDS011;10682;50.874;3.656;2023-02-17T11:07:32;2.73;;;0.77;;
21046;SDS011;10682;50.874;3.656;2023-02-17T11:13:02;2.73;;;0.90;;
21046;SDS011;10682;50.874;3.656;2023-02-17T11:15:53;3.33;;;1.10;;
21046;SDS011;10682;50.874;3.656;2023-02-17T11:18:23;8.20;;;1.03;;
21046;SDS011;10682;50.874;3.656;2023-02-17T11:21:00;1.93;;;0.90;;
21046;SDS011;10682;50.874;3.656;2023-02-17T11:23:34;2.80;;;1.03;;
21046;SDS011;10682;50.874;3.656;2023-02-17T11:26:21;1.97;;;1.10;;
21046;SDS011;10682;50.874;3.656;2023-02-17T11:28:51;2.77;;;1.07;;
21046;SDS011;10682;50.874;3.656;2023-02-17T11:31:23;2.17;;;1.07;;
21046;SDS011;10682;50.874;3.656;2023-02-17T11:33:53;1.40;;;1.17;;
21046;SDS011;10682;50.874;3.656;2023-02-17T11:36:26;4.07;;;0.90;;
21046;SDS011;10682;50.874;3.656;2023-02-17T11:38:57;1.80;;;1.00;;
21046;SDS011;10682;50.874;3.656;2023-02-17T11:41:26;1.83;;;1.10;;
21046;SDS011;10682;50.874;3.656;2023-02-17T11:43:53;2.13;;;1.30;;
21046;SDS011;10682;50.874;3.656;2023-02-17T11:49:41;4.47;;;1.10;;
21046;SDS011;10682;50.874;3.656;2023-02-17T11:55:18;6.30;;;1.20;;
21046;SDS011;10682;50.874;3.656;2023-02-17T11:58:04;1.83;;;1.20;;
21046;SDS011;10682;50.874;3.656;2023-02-17T12:00:58;4.63;;;0.90;;
21046;SDS011;10682;50.874;3.656;2023-02-17T12:06:57;3.83;;;1.00;;
21046;SDS011;10682;50.874;3.656;2023-02-17T12:10:00;2.63;;;1.10;;
21046;SDS011;10682;50.874;3.656;2023-02-17T12:21:37;3.00;;;0.93;;
21046;SDS011;10682;50.874;3.656;2023-02-17T12:27:02;2.53;;;0.60;;
21046;SDS011;10682;50.874;3.656;2023-02-17T12:35:47;5.73;;;1.10;;
21046;SDS011;10682;50.874;3.656;2023-02-17T12:38:24;2.73;;;1.00;;
21046;SDS011;10682;50.874;3.656;2023-02-17T12:46:59;1.23;;;0.80;;
21046;SDS011;10682;50.874;3.656;2023-02-17T12:49:42;2.17;;;1.00;;
21046;SDS011;10682;50.874;3.656;2023-02-17T12:52:22;3.80;;;0.90;;
21046;SDS011;10682;50.874;3.656;2023-02-17T12:55:12;2.03;;;0.70;;
21046;SDS011;10682;50.874;3.656;2023-02-17T12:57:48;4.07;;;0.70;;
21046;SDS011;10682;50.874;3.656;2023-02-17T13:00:22;1.83;;;0.60;;
21046;SDS011;10682;50.874;3.656;2023-02-17T13:02:58;2.17;;;0.70;;
21046;SDS011;10682;50.874;3.656;2023-02-17T13:08:30;1.87;;;0.60;;
21046;SDS011;10682;50.874;3.656;2023-02-17T13:11:12;1.50;;;0.60;;
21046;SDS011;10682;50.874;3.656;2023-02-17T13:14:11;1.77;;;0.70;;
21046;SDS011;10682;50.874;3.656;2023-02-17T13:17:05;2.40;;;0.60;;
21046;SDS011;10682;50.874;3.656;2023-02-17T13:23:02;2.43;;;0.63;;
21046;SDS011;10682;50.874;3.656;2023-02-17T13:25:33;1.77;;;0.80;;
21046;SDS011;10682;50.874;3.656;2023-02-17T13:28:15;2.57;;;0.90;;
21046;SDS011;10682;50.874;3.656;2023-02-17T13:31:10;3.70;;;0.70;;
21046;SDS011;10682;50.874;3.656;2023-02-17T13:33:48;2.13;;;0.87;;
21046;SDS011;10682;50.874;3.656;2023-02-17T13:38:57;3.17;;;0.67;;
21046;SDS011;10682;50.874;3.656;2023-02-17T13:41:57;1.20;;;0.80;;
21046;SDS011;10682;50.874;3.656;2023-02-17T13:44:38;2.30;;;0.60;;
21046;SDS011;10682;50.874;3.656;2023-02-17T13:49:54;1.17;;;0.70;;
21046;SDS011;10682;50.874;3.656;2023-02-17T13:52:23;2.90;;;0.70;;
21046;SDS011;10682;50.874;3.656;2023-02-17T13:55:01;3.60;;;0.90;;
21046;SDS011;10682;50.874;3.656;2023-02-17T13:57:32;2.43;;;1.00;;
21046;SDS011;10682;50.874;3.656;2023-02-17T14:02:49;1.83;;;0.87;;
21046;SDS011;10682;50.874;3.656;2023-02-17T14:07:58;3.17;;;0.90;;
21046;SDS011;10682;50.874;3.656;2023-02-17T14:10:31;1.93;;;0.80;;
21046;SDS011;10682;50.874;3.656;2023-02-17T14:12:59;1.57;;;0.73;;
21046;SDS011;10682;50.874;3.656;2023-02-17T14:15:26;4.30;;;1.07;;
21046;SDS011;10682;50.874;3.656;2023-02-17T14:17:55;3.60;;;1.23;;
21046;SDS011;10682;50.874;3.656;2023-02-17T14:20:23;6.60;;;1.20;;
21046;SDS011;10682;50.874;3.656;2023-02-17T14:23:07;4.57;;;1.27;;
21046;SDS011;10682;50.874;3.656;2023-02-17T14:25:40;2.07;;;1.00;;
21046;SDS011;10682;50.874;3.656;2023-02-17T14:28:19;1.40;;;1.00;;
21046;SDS011;10682;50.874;3.656;2023-02-17T14:30:51;1.30;;;0.90;;
21046;SDS011;10682;50.874;3.656;2023-02-17T14:33:20;4.43;;;1.00;;
21046;SDS011;10682;50.874;3.656;2023-02-17T14:38:39;2.93;;;1.00;;
21046;SDS011;10682;50.874;3.656;2023-02-17T14:41:07;3.90;;;1.20;;
21046;SDS011;10682;50.874;3.656;2023-02-17T14:43:35;4.07;;;1.40;;
21046;SDS011;10682;50.874;3.656;2023-02-17T14:46:02;3.53;;;1.40;;
21046;SDS011;10682;50.874;3.656;2023-02-17T14:48:44;3.77;;;1.20;;
21046;SDS011;10682;50.874;3.656;2023-02-17T14:51:19;4.53;;;2.20;;
21046;SDS011;10682;50.874;3.656;2023-02-17T14:53:49;5.03;;;1.90;;
21046;SDS011;10682;50.874;3.656;2023-02-17T14:56:28;4.10;;;2.00;;
21046;SDS011;10682;50.874;3.656;2023-02-17T14:59:02;5.77;;;1.87;;
21046;SDS011;10682;50.874;3.656;2023-02-17T15:01:30;6.50;;;3.97;;
21046;SDS011;10682;50.874;3.656;2023-02-17T15:03:57;2.63;;;2.10;;
21046;SDS011;10682;50.874;3.656;2023-02-17T15:06:25;3.63;;;1.90;;
21046;SDS011;10682;50.874;3.656;2023-02-17T15:09:04;4.30;;;1.83;;
21046;SDS011;10682;50.874;3.656;2023-02-17T15:11:39;4.93;;;1.90;;
21046;SDS011;10682;50.874;3.656;2023-02-17T15:14:15;5.43;;;2.40;;
21046;SDS011;10682;50.874;3.656;2023-02-17T15:16:44;5.83;;;2.47;;
21046;SDS011;10682;50.874;3.656;2023-02-17T15:19:13;4.43;;;2.13;;
21046;SDS011;10682;50.874;3.656;2023-02-17T15:21:45;7.40;;;2.20;;
21046;SDS011;10682;50.874;3.656;2023-02-17T15:24:18;5.40;;;1.70;;
21046;SDS011;10682;50.874;3.656;2023-02-17T15:26:53;5.83;;;2.00;;
21046;SDS011;10682;50.874;3.656;2023-02-17T15:29:21;3.43;;;1.53;;
21046;SDS011;10682;50.874;3.656;2023-02-17T15:31:50;3.80;;;1.20;;
21046;SDS011;10682;50.874;3.656;2023-02-17T15:34:25;4.27;;;1.53;;
21046;SDS011;10682;50.874;3.656;2023-02-17T15:36:57;4.53;;;1.77;;
21046;SDS011;10682;50.874;3.656;2023-02-17T15:39:24;4.50;;;1.53;;
21046;SDS011;10682;50.874;3.656;2023-02-17T15:41:52;6.03;;;1.90;;
21046;SDS011;10682;50.874;3.656;2023-02-17T15:44:25;4.20;;;1.77;;
21046;SDS011;10682;50.874;3.656;2023-02-17T15:47:15;4.23;;;1.90;;
21046;SDS011;10682;50.874;3.656;2023-02-17T15:49:45;3.63;;;1.30;;
21046;SDS011;10682;50.874;3.656;2023-02-17T15:52:13;4.37;;;2.47;;
21046;SDS011;10682;50.874;3.656;2023-02-17T15:54:40;3.33;;;1.23;;
21046;SDS011;10682;50.874;3.656;2023-02-17T15:57:26;4.17;;;1.77;;
21046;SDS011;10682;50.874;3.656;2023-02-17T15:59:54;5.60;;;1.33;;
21046;SDS011;10682;50.874;3.656;2023-02-17T16:02:21;6.00;;;1.83;;
21046;SDS011;10682;50.874;3.656;2023-02-17T16:04:50;5.37;;;1.67;;
21046;SDS011;10682;50.874;3.656;2023-02-17T16:07:18;5.67;;;2.20;;
21046;SDS011;10682;50.874;3.656;2023-02-17T16:09:45;6.47;;;1.63;;
21046;SDS011;10682;50.874;3.656;2023-02-17T16:12:16;13.77;;;5.67;;
21046;SDS011;10682;50.874;3.656;2023-02-17T16:14:52;7.93;;;2.83;;
21046;SDS011;10682;50.874;3.656;2023-02-17T16:17:20;4.47;;;2.00;;
21046;SDS011;10682;50.874;3.656;2023-02-17T16:19:47;5.73;;;2.23;;
21046;SDS011;10682;50.874;3.656;2023-02-17T16:22:14;4.33;;;1.87;;
21046;SDS011;10682;50.874;3.656;2023-02-17T16:24:42;3.97;;;1.70;;
21046;SDS011;10682;50.874;3.656;2023-02-17T16:27:10;6.80;;;2.93;;
21046;SDS011;10682;50.874;3.656;2023-02-17T16:29:41;6.17;;;2.20;;
21046;SDS011;10682;50.874;3.656;2023-02-17T16:32:09;5.60;;;3.27;;
21046;SDS011;10682;50.874;3.656;2023-02-17T16:34:38;7.67;;;3.70;;
21046;SDS011;10682;50.874;3.656;2023-02-17T16:37:10;19.43;;;10.87;;
21046;SDS011;10682;50.874;3.656;2023-02-17T16:39:40;9.50;;;4.33;;
21046;SDS011;10682;50.874;3.656;2023-02-17T16:42:09;6.53;;;2.87;;
21046;SDS011;10682;50.874;3.656;2023-02-17T16:44:37;10.77;;;4.40;;
21046;SDS011;10682;50.874;3.656;2023-02-17T16:47:04;7.37;;;3.50;;
21046;SDS011;10682;50.874;3.656;2023-02-17T16:49:36;7.57;;;3.30;;
21046;SDS011;10682;50.874;3.656;2023-02-17T16:52:06;12.53;;;5.37;;
21046;SDS011;10682;50.874;3.656;2023-02-17T16:54:58;7.63;;;4.10;;
21046;SDS011;10682;50.874;3.656;2023-02-17T16:57:25;13.00;;;4.67;;
21046;SDS011;10682;50.874;3.656;2023-02-17T16:59:52;7.87;;;4.30;;